createdAt,value
2023-01-17T00:01:48.103Z,2.25
2023-01-17T00:04:52.186Z,1.90
2023-01-17T00:07:55.904Z,2.28
2023-01-17T00:10:41.553Z,1.80
2023-01-17T00:13:27.093Z,2.22
2023-01-17T00:16:12.248Z,2.47
2023-01-17T00:19:15.996Z,1.73
2023-01-17T00:22:19.760Z,2.20
2023-01-17T00:25:24.163Z,1.80
2023-01-17T00:28:09.618Z,1.88
2023-01-17T00:30:55.340Z,1.70
2023-01-17T00:33:40.627Z,2.13
2023-01-17T00:36:26.116Z,2.45
2023-01-17T00:39:11.539Z,1.98
2023-01-17T00:41:56.695Z,2.67
2023-01-17T00:45:00.917Z,2.20
2023-01-17T00:48:05.241Z,2.17
2023-01-17T00:51:09.056Z,1.92
2023-01-17T00:54:12.818Z,2.20
2023-01-17T00:57:16.707Z,2.05
2023-01-17T01:00:20.580Z,1.92
2023-01-17T01:03:29.029Z,2.05
2023-01-17T01:06:33.103Z,1.80
2023-01-17T01:09:36.945Z,1.80
2023-01-17T01:12:40.820Z,1.80
2023-01-17T01:15:44.656Z,1.80
2023-01-17T01:18:48.451Z,1.92
2023-01-17T01:21:52.747Z,2.10
2023-01-17T01:24:56.555Z,2.00
2023-01-17T01:28:00.467Z,3.78
2023-01-17T01:31:04.175Z,1.63
2023-01-17T01:33:53.578Z,2.28
2023-01-17T01:36:38.943Z,2.10
2023-01-17T01:39:24.390Z,1.77
2023-01-17T01:42:15.005Z,2.03
2023-01-17T01:45:00.247Z,1.88
2023-01-17T01:47:47.552Z,2.25
2023-01-17T01:50:36.084Z,1.92
2023-01-17T01:53:21.717Z,1.40
2023-01-17T01:56:12.397Z,1.65
2023-01-17T01:58:59.489Z,1.77
2023-01-17T02:01:47.648Z,2.00
2023-01-17T02:04:33.454Z,1.83
2023-01-17T02:07:23.922Z,2.03
2023-01-17T02:10:09.867Z,1.90
2023-01-17T02:12:55.833Z,2.10
2023-01-17T02:16:29.994Z,1.80
2023-01-17T02:19:42.790Z,2.40
2023-01-17T02:22:46.550Z,2.00
2023-01-17T02:26:10.250Z,1.90
2023-01-17T02:29:20.208Z,2.05
2023-01-17T02:32:11.475Z,3.42
2023-01-17T02:35:05.332Z,2.30
2023-01-17T02:38:07.712Z,2.92
2023-01-17T02:40:57.959Z,1.92
2023-01-17T02:43:43.511Z,2.40
2023-01-17T02:46:28.846Z,2.05
2023-01-17T02:49:16.823Z,2.35
2023-01-17T02:52:12.382Z,2.05
2023-01-17T02:55:29.589Z,2.20
2023-01-17T02:58:19.424Z,2.03
2023-01-17T03:01:17.622Z,2.38
2023-01-17T03:04:08.518Z,2.25
2023-01-17T03:06:58.510Z,2.40
2023-01-17T03:09:47.023Z,2.42
2023-01-17T03:12:35.570Z,2.08
2023-01-17T03:15:21.084Z,2.33
2023-01-17T03:18:10.573Z,2.13
2023-01-17T03:20:55.786Z,1.55
2023-01-17T03:23:41.251Z,2.25
2023-01-17T03:26:26.553Z,2.20
2023-01-17T03:29:11.792Z,2.00
2023-01-17T03:31:56.998Z,1.88
2023-01-17T03:34:42.193Z,1.90
2023-01-17T03:37:27.630Z,1.70
2023-01-17T03:40:13.343Z,1.65
2023-01-17T03:42:58.644Z,1.48
2023-01-17T03:45:44.314Z,1.35
2023-01-17T03:48:29.677Z,1.23
2023-01-17T03:51:15.496Z,1.30
2023-01-17T03:54:00.901Z,1.60
2023-01-17T03:56:46.065Z,2.10
2023-01-17T03:59:33.916Z,1.50
2023-01-17T04:02:19.217Z,1.30
2023-01-17T04:05:05.212Z,1.58
2023-01-17T04:07:51.783Z,1.40
2023-01-17T04:10:37.132Z,1.20
2023-01-17T04:13:22.369Z,1.40
2023-01-17T04:16:13.842Z,1.38
2023-01-17T04:18:58.890Z,1.17
2023-01-17T04:21:44.099Z,1.15
2023-01-17T04:24:29.275Z,1.15
2023-01-17T04:27:14.518Z,1.52
2023-01-17T04:29:59.825Z,1.15
2023-01-17T04:32:45.361Z,1.02
2023-01-17T04:35:31.687Z,0.98
2023-01-17T04:38:17.133Z,0.80
2023-01-17T04:41:02.567Z,0.88
2023-01-17T04:43:47.975Z,0.90
2023-01-17T04:46:33.511Z,1.00
2023-01-17T04:49:18.768Z,0.70
2023-01-17T04:52:04.220Z,0.85
2023-01-17T04:54:49.576Z,0.93
2023-01-17T04:57:34.782Z,0.80
2023-01-17T05:00:22.207Z,1.08
2023-01-17T05:03:08.671Z,0.90
2023-01-17T05:05:54.036Z,0.98
2023-01-17T05:08:39.484Z,1.05
2023-01-17T05:11:25.039Z,1.13
2023-01-17T05:14:10.782Z,0.88
2023-01-17T05:16:56.720Z,0.85
2023-01-17T05:19:41.874Z,0.80
2023-01-17T05:22:27.228Z,1.10
2023-01-17T05:25:13.182Z,1.02
2023-01-17T05:28:02.304Z,1.00
2023-01-17T05:30:47.617Z,0.77
2023-01-17T05:33:32.834Z,1.30
2023-01-17T05:36:21.278Z,1.20
2023-01-17T05:39:06.433Z,1.15
2023-01-17T05:41:52.116Z,0.98
2023-01-17T05:44:38.625Z,1.20
2023-01-17T05:47:23.751Z,0.90
2023-01-17T05:50:10.141Z,1.10
2023-01-17T05:53:04.045Z,1.42
2023-01-17T05:55:49.649Z,1.50
2023-01-17T05:58:34.788Z,1.42
2023-01-17T06:01:20.226Z,1.35
2023-01-17T06:04:05.836Z,1.30
2023-01-17T06:06:51.241Z,1.35
2023-01-17T06:09:36.599Z,1.52
2023-01-17T06:12:22.192Z,1.27
2023-01-17T06:15:08.226Z,1.45
2023-01-17T06:17:53.603Z,1.23
2023-01-17T06:20:39.593Z,1.50
2023-01-17T06:23:25.364Z,1.60
2023-01-17T06:26:11.020Z,1.60
2023-01-17T06:28:56.107Z,1.42
2023-01-17T06:31:41.494Z,2.10
2023-01-17T06:34:26.993Z,1.58
2023-01-17T06:37:12.352Z,1.58
2023-01-17T06:39:57.836Z,1.48
2023-01-17T06:42:43.604Z,1.65
2023-01-17T06:45:34.836Z,1.50
2023-01-17T06:48:20.044Z,2.17
2023-01-17T06:51:05.786Z,1.80
2023-01-17T06:53:51.001Z,1.83
2023-01-17T06:56:36.749Z,2.20
2023-01-17T06:59:21.924Z,1.63
2023-01-17T07:02:10.358Z,1.80
2023-01-17T07:04:55.551Z,1.80
2023-01-17T07:07:40.895Z,2.10
2023-01-17T07:10:26.340Z,2.35
2023-01-17T07:13:12.618Z,3.58
2023-01-17T07:16:00.790Z,2.33
2023-01-17T07:18:45.995Z,1.90
2023-01-17T07:21:31.355Z,2.15
2023-01-17T07:24:16.726Z,2.30
2023-01-17T07:27:01.954Z,1.77
2023-01-17T07:29:47.484Z,2.17
2023-01-17T07:32:33.105Z,2.10
2023-01-17T07:35:19.082Z,2.33
2023-01-17T07:38:07.744Z,2.00
2023-01-17T07:40:58.140Z,1.98
2023-01-17T07:43:43.522Z,2.00
2023-01-17T07:46:28.768Z,2.10
2023-01-17T07:49:14.583Z,2.00
2023-01-17T07:52:00.005Z,1.92
2023-01-17T07:54:45.361Z,3.97
2023-01-17T07:57:32.512Z,1.88
2023-01-17T08:00:18.112Z,1.77
2023-01-17T08:03:03.755Z,1.70
2023-01-17T08:05:57.513Z,2.10
2023-01-17T08:08:43.170Z,1.80
2023-01-17T08:11:28.364Z,2.03
2023-01-17T08:14:13.637Z,1.80
2023-01-17T08:17:14.400Z,2.13
2023-01-17T08:20:00.335Z,1.40
2023-01-17T08:22:45.972Z,1.52
2023-01-17T08:25:33.023Z,1.70
2023-01-17T08:28:19.772Z,1.77
2023-01-17T08:31:09.605Z,1.77
2023-01-17T08:36:42.730Z,1.58
2023-01-17T08:39:28.669Z,1.63
2023-01-17T08:42:13.875Z,1.70
2023-01-17T08:44:59.068Z,1.70
2023-01-17T08:47:44.903Z,1.75
2023-01-17T08:50:30.237Z,1.60
2023-01-17T08:53:16.400Z,1.65
2023-01-17T08:56:03.503Z,1.67
2023-01-17T08:58:48.491Z,1.52
2023-01-17T09:01:40.540Z,1.50
2023-01-17T09:04:26.122Z,1.42
2023-01-17T09:07:11.203Z,1.95
2023-01-17T09:09:56.723Z,1.60
2023-01-17T09:12:42.066Z,1.67
2023-01-17T09:15:27.680Z,1.90
2023-01-17T09:18:12.729Z,1.45
2023-01-17T09:21:00.936Z,1.40
2023-01-17T09:23:46.738Z,1.75
2023-01-17T09:26:32.289Z,1.38
2023-01-17T09:29:18.658Z,0.90
2023-01-17T09:32:04.029Z,1.10
2023-01-17T09:34:49.420Z,0.80
2023-01-17T09:37:35.371Z,1.00
2023-01-17T09:40:25.161Z,1.10
2023-01-17T09:43:25.667Z,1.08
2023-01-17T09:46:22.634Z,0.85
2023-01-17T09:49:26.882Z,1.00
2023-01-17T09:52:16.278Z,1.85
2023-01-17T09:55:02.610Z,1.08
2023-01-17T09:58:00.401Z,1.25
2023-01-17T10:00:58.250Z,1.00
2023-01-17T10:03:48.587Z,1.23
2023-01-17T10:06:45.923Z,1.33
2023-01-17T10:10:00.551Z,1.05
2023-01-17T10:13:19.931Z,0.80
2023-01-17T10:19:31.509Z,0.88
2023-01-17T10:22:37.567Z,0.73
2023-01-17T10:25:30.084Z,0.95
2023-01-17T10:28:17.337Z,0.73
2023-01-17T10:31:13.643Z,0.70
2023-01-17T10:34:11.063Z,0.80
2023-01-17T10:37:03.424Z,1.00
2023-01-17T10:39:50.374Z,1.40
2023-01-17T10:42:50.714Z,1.00
2023-01-17T10:45:52.827Z,1.08
2023-01-17T10:48:47.356Z,0.70
2023-01-17T10:51:49.702Z,1.17
2023-01-17T10:55:05.052Z,0.90
2023-01-17T10:57:52.363Z,0.90
2023-01-17T11:00:44.351Z,0.80
2023-01-17T11:03:29.454Z,1.17
2023-01-17T11:06:27.770Z,0.70
2023-01-17T11:09:14.014Z,1.00
2023-01-17T11:11:59.507Z,0.98
2023-01-17T11:15:05.702Z,0.70
2023-01-17T11:18:01.450Z,1.27
2023-01-17T11:20:48.436Z,1.40
2023-01-17T11:23:34.209Z,0.82
2023-01-17T11:26:28.706Z,0.90
2023-01-17T11:29:25.567Z,1.00
2023-01-17T11:32:23.556Z,1.02
2023-01-17T11:35:41.880Z,1.45
2023-01-17T11:38:30.062Z,1.58
2023-01-17T11:41:21.123Z,0.70
2023-01-17T11:44:27.005Z,0.60
2023-01-17T11:47:12.227Z,0.90
2023-01-17T11:49:57.712Z,1.13
2023-01-17T11:52:43.274Z,1.80
2023-01-17T11:55:28.529Z,1.58
2023-01-17T11:58:15.214Z,1.35
2023-01-17T12:01:25.414Z,1.42
2023-01-17T12:04:24.730Z,1.40
2023-01-17T12:07:38.072Z,1.30
2023-01-17T12:10:29.799Z,1.40
2023-01-17T12:13:53.095Z,1.40
2023-01-17T12:17:14.216Z,1.85
2023-01-17T12:20:01.485Z,2.00
2023-01-17T12:23:00.747Z,1.67
2023-01-17T12:25:58.132Z,1.45
2023-01-17T12:29:05.385Z,2.03
2023-01-17T12:32:09.481Z,2.10
2023-01-17T12:35:15.387Z,1.95
2023-01-17T12:38:08.918Z,1.27
2023-01-17T12:41:00.933Z,1.35
2023-01-17T12:43:46.460Z,1.20
2023-01-17T12:46:44.039Z,1.20
2023-01-17T12:49:58.041Z,1.50
2023-01-17T12:52:55.589Z,1.65
2023-01-17T12:56:09.020Z,1.38
2023-01-17T12:59:15.719Z,1.50
2023-01-17T13:02:10.785Z,1.05
2023-01-17T13:05:03.016Z,1.33
2023-01-17T13:08:05.259Z,1.30
2023-01-17T13:11:11.888Z,1.25
2023-01-17T13:13:57.882Z,1.55
2023-01-17T13:16:48.648Z,2.60
2023-01-17T13:19:50.292Z,2.63
2023-01-17T13:22:38.505Z,1.80
2023-01-17T13:25:26.960Z,1.77
2023-01-17T13:28:35.848Z,1.50
2023-01-17T13:31:40.454Z,1.67
2023-01-17T13:34:43.604Z,2.00
2023-01-17T13:37:34.189Z,2.13
2023-01-17T13:40:27.951Z,1.30
2023-01-17T13:43:20.082Z,1.50
2023-01-17T13:46:06.642Z,2.15
2023-01-17T13:49:41.639Z,1.80
2023-01-17T13:52:33.201Z,1.45
2023-01-17T13:55:50.753Z,1.52
2023-01-17T13:58:58.269Z,1.63
2023-01-17T14:01:43.549Z,1.38
2023-01-17T14:05:07.358Z,1.45
2023-01-17T14:08:02.993Z,2.00
2023-01-17T14:10:53.338Z,2.55
2023-01-17T14:13:39.638Z,1.65
2023-01-17T14:16:29.544Z,2.25
2023-01-17T14:19:26.497Z,1.85
2023-01-17T14:22:21.022Z,2.17
2023-01-17T14:25:12.433Z,1.92
2023-01-17T14:28:04.150Z,2.53
2023-01-17T14:30:56.242Z,2.53
2023-01-17T14:33:41.885Z,2.42
2023-01-17T14:36:32.359Z,3.38
2023-01-17T14:39:22.450Z,1.50
2023-01-17T14:42:13.374Z,1.90
2023-01-17T14:45:09.174Z,1.92
2023-01-17T14:47:57.452Z,1.85
2023-01-17T14:50:44.123Z,1.70
2023-01-17T14:53:31.346Z,1.80
2023-01-17T14:56:17.673Z,2.78
2023-01-17T14:59:16.758Z,1.70
2023-01-17T15:02:08.202Z,1.42
2023-01-17T15:04:54.873Z,1.80
2023-01-17T15:07:41.721Z,1.83
2023-01-17T15:10:31.473Z,1.75
2023-01-17T15:13:29.754Z,1.45
2023-01-17T15:16:28.163Z,2.40
2023-01-17T15:19:18.109Z,3.42
2023-01-17T15:22:04.872Z,2.88
2023-01-17T15:24:51.562Z,4.10
2023-01-17T15:27:38.592Z,3.35
2023-01-17T15:30:25.242Z,1.92
2023-01-17T15:33:20.992Z,2.83
2023-01-17T15:36:09.851Z,3.40
2023-01-17T15:39:01.629Z,3.83
2023-01-17T15:41:49.644Z,3.05
2023-01-17T15:44:48.879Z,4.63
2023-01-17T15:47:40.302Z,5.10
2023-01-17T15:50:31.859Z,3.92
2023-01-17T15:53:32.512Z,3.60
2023-01-17T15:56:21.162Z,3.88
2023-01-17T15:59:45.423Z,3.30
2023-01-17T16:02:42.777Z,3.35
2023-01-17T16:05:32.835Z,4.38
2023-01-17T16:08:24.068Z,2.63
2023-01-17T16:11:11.616Z,3.30
2023-01-17T16:13:56.636Z,7.22
2023-01-17T16:16:51.047Z,3.95
2023-01-17T16:19:36.369Z,3.97
2023-01-17T16:22:21.938Z,3.03
2023-01-17T16:25:18.117Z,2.50
2023-01-17T16:28:03.807Z,3.40
2023-01-17T16:30:49.276Z,4.20
2023-01-17T16:33:34.498Z,4.55
2023-01-17T16:36:21.067Z,4.68
2023-01-17T16:39:06.739Z,4.95
2023-01-17T16:41:51.916Z,4.15
2023-01-17T16:44:37.331Z,3.13
2023-01-17T16:47:22.685Z,3.58
2023-01-17T16:50:09.418Z,3.10
2023-01-17T16:52:56.090Z,3.75
2023-01-17T16:55:43.240Z,4.07
2023-01-17T16:58:28.327Z,4.00
2023-01-17T17:01:15.834Z,2.90
2023-01-17T17:04:01.065Z,3.97
2023-01-17T17:06:46.623Z,3.75
2023-01-17T17:09:32.021Z,3.30
2023-01-17T17:12:17.459Z,3.85
2023-01-17T17:15:03.247Z,3.22
2023-01-17T17:17:48.579Z,4.13
2023-01-17T17:20:34.036Z,5.18
2023-01-17T17:23:19.547Z,6.68
2023-01-17T17:26:05.272Z,7.50
2023-01-17T17:28:52.647Z,7.25
2023-01-17T17:31:39.422Z,6.75
2023-01-17T17:34:27.564Z,4.22
2023-01-17T17:37:15.983Z,4.45
2023-01-17T17:40:01.819Z,3.85
2023-01-17T17:42:47.062Z,4.28
2023-01-17T17:45:32.290Z,3.67
2023-01-17T17:48:17.288Z,3.80
2023-01-17T17:51:03.913Z,3.95
2023-01-17T17:53:49.169Z,3.90
2023-01-17T17:56:35.385Z,4.25
2023-01-17T17:59:20.507Z,3.83
2023-01-17T18:02:06.620Z,4.30
2023-01-17T18:04:51.793Z,4.00
2023-01-17T18:07:37.406Z,4.25
2023-01-17T18:10:22.474Z,2.75
2023-01-17T18:13:08.430Z,3.08
2023-01-17T18:16:01.720Z,3.03
2023-01-17T18:18:50.572Z,3.92
2023-01-17T18:21:37.507Z,3.03
2023-01-17T18:24:24.113Z,4.35
2023-01-17T18:27:10.434Z,4.63
2023-01-17T18:29:55.600Z,3.72
2023-01-17T18:32:41.860Z,6.63
2023-01-17T18:35:27.359Z,4.55
2023-01-17T18:38:12.675Z,4.15
2023-01-17T18:41:02.661Z,3.22
2023-01-17T18:43:48.221Z,3.78
2023-01-17T18:46:34.375Z,5.13
2023-01-17T18:49:20.334Z,7.35
2023-01-17T18:52:07.894Z,5.85
2023-01-17T18:54:53.270Z,4.47
2023-01-17T18:57:38.754Z,5.03
2023-01-17T19:00:24.218Z,5.07
2023-01-17T19:03:09.369Z,5.10
2023-01-17T19:05:54.908Z,4.82
2023-01-17T19:08:41.375Z,4.50
2023-01-17T19:11:27.567Z,4.95
2023-01-17T19:14:13.165Z,5.00
2023-01-17T19:16:58.297Z,4.63
2023-01-17T19:19:43.796Z,4.43
2023-01-17T19:22:30.626Z,5.53
2023-01-17T19:25:16.334Z,6.25
2023-01-17T19:28:01.941Z,8.65
2023-01-17T19:30:47.556Z,9.18
2023-01-17T19:33:34.906Z,10.20
2023-01-17T19:36:26.597Z,9.80
2023-01-17T19:39:11.789Z,9.85
2023-01-17T19:41:57.321Z,9.52
2023-01-17T19:44:44.696Z,8.85
2023-01-17T19:47:31.013Z,9.75
2023-01-17T19:50:18.598Z,8.98
2023-01-17T19:53:03.955Z,8.95
2023-01-17T19:55:49.297Z,7.78
2023-01-17T19:58:35.318Z,8.95
2023-01-17T20:01:24.492Z,8.43
2023-01-17T20:06:55.336Z,8.93
2023-01-17T20:09:40.636Z,8.15
2023-01-17T20:12:26.155Z,8.13
2023-01-17T20:15:11.419Z,9.27
2023-01-17T20:17:57.054Z,11.18
2023-01-17T20:20:56.275Z,7.93
2023-01-17T20:23:43.434Z,8.77
2023-01-17T20:26:34.725Z,6.32
2023-01-17T20:29:20.181Z,5.22
2023-01-17T20:32:06.795Z,6.03
2023-01-17T20:34:52.264Z,6.53
2023-01-17T20:37:37.744Z,5.50
2023-01-17T20:40:23.161Z,5.97
2023-01-17T20:43:09.969Z,6.22
2023-01-17T20:45:55.976Z,6.82
2023-01-17T20:48:55.120Z,7.22
2023-01-17T20:51:40.918Z,6.22
2023-01-17T20:54:26.582Z,6.43
2023-01-17T20:57:13.761Z,6.05
2023-01-17T20:59:59.007Z,7.35
2023-01-17T21:02:45.222Z,7.45
2023-01-17T21:05:30.476Z,7.38
2023-01-17T21:08:18.499Z,6.82
2023-01-17T21:11:06.062Z,7.15
2023-01-17T21:13:51.815Z,7.55
2023-01-17T21:16:37.312Z,9.93
2023-01-17T21:19:24.969Z,8.32
2023-01-17T21:22:11.131Z,8.38
2023-01-17T21:24:56.449Z,8.05
2023-01-17T21:27:41.943Z,8.40
2023-01-17T21:30:27.114Z,6.50
2023-01-17T21:33:13.169Z,6.28
2023-01-17T21:36:07.821Z,8.05
2023-01-17T21:38:56.936Z,9.27
2023-01-17T21:41:45.646Z,9.27
2023-01-17T21:44:36.345Z,9.02
2023-01-17T21:47:21.773Z,7.25
2023-01-17T21:50:07.498Z,7.85
2023-01-17T21:52:53.006Z,7.80
2023-01-17T21:55:56.904Z,7.57
2023-01-17T21:58:44.966Z,7.68
2023-01-17T22:01:33.212Z,7.80
2023-01-17T22:04:18.475Z,7.97
2023-01-17T22:07:03.583Z,7.72
2023-01-17T22:09:49.196Z,8.35
2023-01-17T22:12:34.532Z,8.40
2023-01-17T22:15:19.962Z,8.50
2023-01-17T22:18:08.252Z,8.70
2023-01-17T22:20:53.625Z,8.38
2023-01-17T22:23:39.497Z,9.95
2023-01-17T22:26:27.735Z,10.32
2023-01-17T22:29:16.901Z,9.70
2023-01-17T22:34:48.415Z,9.18
2023-01-17T22:37:34.823Z,9.75
2023-01-17T22:40:20.722Z,9.48
2023-01-17T22:43:06.256Z,9.93
2023-01-17T22:45:58.925Z,8.90
2023-01-17T22:48:44.875Z,8.10
2023-01-17T22:51:30.123Z,8.32
2023-01-17T22:54:15.310Z,8.63
2023-01-17T22:57:00.388Z,8.70
2023-01-17T22:59:45.768Z,8.30
2023-01-17T23:02:31.018Z,9.00
2023-01-17T23:05:16.632Z,7.80
2023-01-17T23:08:02.400Z,8.90
2023-01-17T23:11:06.242Z,9.20
2023-01-17T23:13:52.847Z,9.70
2023-01-17T23:17:03.268Z,8.88
2023-01-17T23:19:54.416Z,8.55
2023-01-17T23:22:39.958Z,9.45
2023-01-17T23:25:25.165Z,8.23
2023-01-17T23:28:20.516Z,9.15
2023-01-17T23:31:06.409Z,9.40
2023-01-17T23:33:51.732Z,8.32
2023-01-17T23:36:37.189Z,9.52
2023-01-17T23:39:22.704Z,9.70
2023-01-17T23:42:26.262Z,9.75
2023-01-17T23:45:11.617Z,9.07
2023-01-17T23:47:56.865Z,9.20
2023-01-17T23:50:44.335Z,8.70
2023-01-17T23:53:29.744Z,9.80
2023-01-17T23:56:18.798Z,9.48
2023-01-17T23:59:04.339Z,9.90
